Time;durP1;ratioP1;P1;durP2;ratioP2;P2;SDS_P1;SDS_P2;PMS_P1;PMS_P2;Temp;Humidity;BMP_temperature;BMP_pressure;BME280_temperature;BME280_humidity;BME280_pressure;Samples;Min_cycle;Max_cycle;Signal;HPM_P1;HPM_P2
2022/10/01 00:01:00;;;;;;;6.55;4.65;;;;;;;10.81;100.00;100104.94;5029313;28;20376;-71
2022/10/01 00:03:27;;;;;;;7.57;4.43;;;;;;;10.78;100.00;100110.84;5031681;28;20030;-69
2022/10/01 00:05:59;;;;;;;5.45;4.68;;;;;;;10.81;100.00;100102.25;5031411;28;20116;-71
2022/10/01 00:08:26;;;;;;;6.57;4.82;;;;;;;10.79;100.00;100109.75;5033087;28;20041;-68
2022/10/01 00:10:52;;;;;;;6.82;4.70;;;;;;;10.79;100.00;100097.06;5031682;28;20540;-71
2022/10/01 00:13:17;;;;;;;7.30;4.60;;;;;;;10.78;100.00;100095.44;5032842;28;20061;-71
2022/10/01 00:15:43;;;;;;;5.82;4.75;;;;;;;10.75;100.00;100085.09;5032539;28;20471;-70
2022/10/01 00:18:09;;;;;;;6.38;5.03;;;;;;;10.75;100.00;100071.56;5027518;28;20029;-71
2022/10/01 00:20:39;;;;;;;8.00;5.38;;;;;;;10.78;100.00;100094.63;5011189;28;20026;-70
2022/10/01 00:23:04;;;;;;;5.75;4.80;;;;;;;10.76;100.00;100072.38;5032383;28;20413;-69
2022/10/01 00:25:29;;;;;;;6.15;5.13;;;;;;;10.74;100.00;100064.50;5031369;28;20166;-68
2022/10/01 00:27:55;;;;;;;6.80;4.88;;;;;;;10.78;100.00;100056.72;5032281;28;20021;-73
2022/10/01 00:30:20;;;;;;;6.60;4.75;;;;;;;10.79;100.00;100059.19;5047873;28;20493;-73
2022/10/01 00:32:46;;;;;;;6.20;4.93;;;;;;;10.76;100.00;100065.06;5031539;28;20025;-70
2022/10/01 00:35:12;;;;;;;8.43;4.70;;;;;;;10.77;100.00;100055.88;5032244;28;20111;-69
2022/10/01 00:37:38;;;;;;;6.70;5.00;;;;;;;10.76;100.00;100037.19;5029275;28;20026;-73
2022/10/01 00:40:05;;;;;;;7.05;5.20;;;;;;;10.75;100.00;100030.97;5032026;28;20527;-68
2022/10/01 00:42:30;;;;;;;6.38;4.53;;;;;;;10.75;100.00;100044.50;5031830;28;20026;-68
2022/10/01 00:44:57;;;;;;;9.75;5.20;;;;;;;10.78;100.00;100052.13;5011239;28;20025;-73
2022/10/01 00:47:30;;;;;;;6.05;4.70;;;;;;;10.78;100.00;100054.84;5027761;28;20024;-70
2022/10/01 00:50:04;;;;;;;5.15;4.65;;;;;;;10.84;100.00;100063.03;5012428;28;20037;-69
2022/10/01 00:52:35;;;;;;;5.97;4.40;;;;;;;10.82;100.00;100069.53;5027147;28;20029;-70
2022/10/01 00:55:10;;;;;;;6.70;5.30;;;;;;;10.80;100.00;100071.63;5032091;28;20029;-70
2022/10/01 00:57:36;;;;;;;7.78;4.60;;;;;;;10.82;100.00;100064.09;5031338;28;20148;-71
2022/10/01 01:00:06;;;;;;;5.95;4.55;;;;;;;10.83;100.00;100056.78;5013525;28;20033;-68
2022/10/01 01:02:32;;;;;;;6.00;4.53;;;;;;;10.84;100.00;100052.19;5024881;28;20024;-70
2022/10/01 01:04:58;;;;;;;5.07;4.47;;;;;;;10.84;100.00;100049.50;5031978;28;20112;-70
2022/10/01 01:07:23;;;;;;;6.32;4.57;;;;;;;10.78;100.00;100065.66;5030837;28;20057;-70
2022/10/01 01:09:51;;;;;;;4.97;4.47;;;;;;;10.76;100.00;100077.78;5030728;28;20483;-71
2022/10/01 01:12:23;;;;;;;5.55;4.68;;;;;;;10.77;100.00;100042.34;5019274;28;20041;-71
2022/10/01 01:15:21;;;;;;;8.40;4.50;;;;;;;10.75;100.00;100030.97;5012177;28;20022;-71
2022/10/01 01:17:53;;;;;;;5.05;4.28;;;;;;;10.74;100.00;100023.09;5006033;28;20056;-72
2022/10/01 01:20:24;;;;;;;4.85;4.30;;;;;;;10.71;100.00;100023.59;5012236;28;20041;-70
2022/10/01 01:23:12;;;;;;;7.00;4.88;;;;;;;10.70;100.00;99990.28;5027699;28;20315;-68
2022/10/01 01:25:53;;;;;;;4.80;4.40;;;;;;;10.65;100.00;99957.75;5027742;28;20039;-71
2022/10/01 01:28:30;;;;;;;4.68;4.05;;;;;;;10.62;100.00;99933.88;5031972;28;20029;-72
2022/10/01 01:31:04;;;;;;;5.93;4.00;;;;;;;10.58;100.00;99911.94;5030738;28;20083;-71
2022/10/01 01:33:33;;;;;;;5.07;3.95;;;;;;;10.59;100.00;99899.22;5012273;28;20034;-71
2022/10/01 01:36:04;;;;;;;3.58;3.28;;;;;;;10.54;100.00;99882.94;5012021;28;20457;-72
2022/10/01 01:38:38;;;;;;;3.83;3.42;;;;;;;10.54;100.00;99843.16;5012261;28;20032;-69
2022/10/01 01:41:05;;;;;;;4.85;3.65;;;;;;;10.56;100.00;99849.13;5027551;28;20473;-71
2022/10/01 01:43:36;;;;;;;3.53;3.22;;;;;;;10.55;100.00;99925.13;5011553;28;20080;-72
2022/10/01 01:46:04;;;;;;;4.75;3.20;;;;;;;10.53;100.00;99946.19;5030597;28;20516;-70
2022/10/01 01:48:32;;;;;;;4.57;2.90;;;;;;;10.60;100.00;99952.28;5030556;28;20033;-72
2022/10/01 01:51:10;;;;;;;3.60;3.30;;;;;;;10.55;100.00;99944.91;5031567;28;20026;-70
2022/10/01 01:53:36;;;;;;;5.63;3.70;;;;;;;10.53;100.00;99927.25;5029876;28;20026;-70
2022/10/01 01:56:02;;;;;;;3.90;3.40;;;;;;;10.50;100.00;99916.94;5015397;28;20472;-71
2022/10/01 01:58:28;;;;;;;4.93;3.58;;;;;;;10.46;100.00;99925.56;5021083;28;20029;-70
2022/10/01 02:00:54;;;;;;;4.50;3.20;;;;;;;10.52;100.00;99925.63;5031224;28;20017;-70
2022/10/01 02:03:24;;;;;;;3.75;3.45;;;;;;;10.48;100.00;99935.28;5034064;28;20029;-69
2022/10/01 02:06:25;;;;;;;5.03;3.72;;;;;;;10.53;100.00;99948.91;5034635;28;20345;-71
2022/10/01 02:09:01;;;;;;;4.75;3.60;;;;;;;10.44;100.00;99938.47;5026031;28;20044;-69
2022/10/01 02:11:35;;;;;;;5.68;3.45;;;;;;;10.42;100.00;99932.50;5034045;28;20415;-72
2022/10/01 02:14:12;;;;;;;2.72;2.53;;;;;;;10.44;100.00;99940.38;5034543;28;20117;-71
2022/10/01 02:17:00;;;;;;;4.50;2.80;;;;;;;10.46;100.00;99940.94;5034826;28;20423;-70
2022/10/01 02:19:54;;;;;;;4.03;2.80;;;;;;;10.45;100.00;99932.00;5029889;28;20541;-69
2022/10/01 02:22:30;;;;;;;2.97;2.70;;;;;;;10.43;100.00;99926.03;5023162;28;20473;-69
2022/10/01 02:25:00;;;;;;;2.58;2.38;;;;;;;10.44;100.00;99924.16;5034589;28;20095;-73
2022/10/01 02:27:35;;;;;;;6.25;2.72;;;;;;;10.44;100.00;99922.25;5034943;28;20112;-72
2022/10/01 02:30:06;;;;;;;2.58;2.20;;;;;;;10.45;100.00;99915.78;5034652;28;20357;-71
2022/10/01 02:32:34;;;;;;;3.45;2.40;;;;;;;10.46;100.00;99914.72;5029562;28;20377;-71
2022/10/01 02:35:01;;;;;;;2.50;2.30;;;;;;;10.46;100.00;99906.63;5014247;28;20377;-73
2022/10/01 02:37:27;;;;;;;3.55;2.30;;;;;;;10.47;100.00;99893.91;5014758;28;20478;-70
2022/10/01 02:39:55;;;;;;;2.38;1.90;;;;;;;10.49;100.00;99899.06;5014392;28;20030;-71
2022/10/01 02:42:23;;;;;;;1.98;1.88;;;;;;;10.47;100.00;99907.44;5026975;28;20025;-72
2022/10/01 02:44:51;;;;;;;2.33;1.90;;;;;;;10.52;100.00;99896.66;5014150;28;20025;-71
2022/10/01 02:47:33;;;;;;;5.65;2.72;;;;;;;10.60;100.00;99892.75;5014613;28;20022;-69
2022/10/01 02:50:00;;;;;;;3.58;2.20;;;;;;;10.57;100.00;99895.94;5014352;28;20449;-71
2022/10/01 02:52:31;;;;;;;3.05;2.30;;;;;;;10.55;100.00;99914.31;5014615;28;20470;-72
2022/10/01 02:55:07;;;;;;;2.50;2.30;;;;;;;10.52;100.00;99887.75;5024138;28;20534;-71
2022/10/01 02:57:32;;;;;;;2.13;2.00;;;;;;;10.52;100.00;99888.56;5034265;28;20018;-70
2022/10/01 03:00:05;;;;;;;2.42;2.10;;;;;;;10.54;100.00;99882.94;5034138;28;20155;-70
2022/10/01 03:02:31;;;;;;;2.15;1.95;;;;;;;10.55;100.00;99887.25;5029851;28;20057;-70
2022/10/01 03:04:57;;;;;;;2.08;1.98;;;;;;;10.54;100.00;99883.72;5028626;28;20056;-73
2022/10/01 03:07:25;;;;;;;1.88;1.70;;;;;;;10.57;100.00;99894.06;5012858;28;20030;-70
2022/10/01 03:09:50;;;;;;;2.13;1.70;;;;;;;10.61;100.00;99895.22;5013877;28;20029;-71
2022/10/01 03:12:17;;;;;;;1.90;1.80;;;;;;;10.64;100.00;99888.47;5018499;28;20350;-73
2022/10/01 03:14:46;;;;;;;3.42;2.03;;;;;;;10.63;100.00;99890.34;5033854;28;20030;-70
2022/10/01 03:17:13;;;;;;;3.28;1.73;;;;;;;10.64;100.00;99885.75;5032264;28;20056;-70
2022/10/01 03:19:39;;;;;;;1.63;1.52;;;;;;;10.67;100.00;99884.44;5033493;28;20468;-70
2022/10/01 03:22:04;;;;;;;1.88;1.63;;;;;;;10.65;100.00;99873.88;5031023;28;20088;-71
2022/10/01 03:24:30;;;;;;;1.70;1.60;;;;;;;10.71;100.00;99872.06;5033385;28;20045;-71
2022/10/01 03:26:56;;;;;;;3.25;1.60;;;;;;;10.68;100.00;99864.44;5031281;28;20100;-71
2022/10/01 03:29:22;;;;;;;3.22;1.55;;;;;;;10.69;100.00;99872.31;5033285;28;20479;-71
2022/10/01 03:31:47;;;;;;;1.80;1.40;;;;;;;10.70;100.00;99873.94;5032568;28;20025;-70
2022/10/01 03:34:12;;;;;;;1.92;1.60;;;;;;;10.72;100.00;99884.50;5012206;28;20052;-72
2022/10/01 03:36:38;;;;;;;1.30;1.08;;;;;;;10.70;100.00;99881.25;5013694;28;20030;-70
2022/10/01 03:39:03;;;;;;;1.40;1.30;;;;;;;10.74;100.00;99877.78;5013433;28;20033;-71
2022/10/01 03:41:28;;;;;;;3.42;1.05;;;;;;;10.75;100.00;99874.00;5013754;28;20469;-71
2022/10/01 03:43:54;;;;;;;1.20;1.17;;;;;;;10.75;100.00;99874.00;5028754;28;20052;-72
2022/10/01 03:46:19;;;;;;;1.30;1.20;;;;;;;10.80;100.00;99878.69;5012108;28;20033;-70
2022/10/01 03:48:44;;;;;;;2.42;1.17;;;;;;;10.80;100.00;99875.97;5013516;28;20053;-72
2022/10/01 03:51:10;;;;;;;0.98;0.98;;;;;;;10.81;100.00;99881.13;5023881;28;20094;-70
2022/10/01 03:53:35;;;;;;;1.20;1.10;;;;;;;10.85;100.00;99888.75;5013612;28;20037;-69
2022/10/01 03:56:01;;;;;;;0.90;0.90;;;;;;;10.87;100.00;99881.19;5027483;28;20036;-72
2022/10/01 03:58:26;;;;;;;1.08;1.00;;;;;;;10.91;100.00;99882.34;5033026;28;20032;-71
2022/10/01 04:00:54;;;;;;;0.90;0.90;;;;;;;10.90;100.00;99870.69;5030607;28;20237;-72
2022/10/01 04:03:19;;;;;;;1.85;1.15;;;;;;;10.96;100.00;99885.09;5032206;28;20037;-70
2022/10/01 04:05:45;;;;;;;0.90;0.90;;;;;;;10.95;100.00;99886.19;5033221;28;20079;-72
2022/10/01 04:08:11;;;;;;;1.30;1.00;;;;;;;10.97;100.00;99889.44;5032629;28;20079;-70
2022/10/01 04:10:37;;;;;;;4.40;0.80;;;;;;;11.01;100.00;99884.38;5029166;28;20055;-72
2022/10/01 04:13:03;;;;;;;1.65;0.80;;;;;;;11.05;100.00;99899.84;5020241;28;20049;-70
2022/10/01 04:15:29;;;;;;;1.58;0.80;;;;;;;11.06;100.00;99893.34;5011168;28;20049;-72
2022/10/01 04:17:54;;;;;;;0.50;0.50;;;;;;;11.06;100.00;99901.47;5011621;28;20115;-72
2022/10/01 04:20:19;;;;;;;0.88;0.73;;;;;;;11.08;100.00;99901.22;5012775;28;20433;-73
2022/10/01 04:22:45;;;;;;;0.60;0.50;;;;;;;11.11;100.00;99901.56;5015246;28;20508;-71
2022/10/01 04:25:12;;;;;;;0.73;0.60;;;;;;;11.13;100.00;99907.53;5032472;28;20029;-71
2022/10/01 04:27:41;;;;;;;1.73;0.77;;;;;;;11.14;100.00;99914.59;5032288;28;20087;-70
2022/10/01 04:30:08;;;;;;;1.75;0.65;;;;;;;11.15;100.00;99909.97;5032612;28;20037;-71
2022/10/01 04:32:33;;;;;;;0.70;0.70;;;;;;;11.17;100.00;99910.53;5030405;28;20111;-70
2022/10/01 04:35:01;;;;;;;0.82;0.82;;;;;;;11.22;100.00;99909.78;5012724;28;20457;-73
2022/10/01 04:37:27;;;;;;;3.80;0.80;;;;;;;11.18;100.00;99912.19;5011587;28;20029;-73
2022/10/01 04:39:53;;;;;;;1.10;1.00;;;;;;;11.25;100.00;99912.00;5011540;28;20080;-73
2022/10/01 04:42:19;;;;;;;1.00;0.90;;;;;;;11.25;100.00;99910.09;5011387;28;20096;-72
2022/10/01 04:44:44;;;;;;;1.13;0.80;;;;;;;11.25;100.00;99915.53;5030031;28;20133;-70
2022/10/01 04:47:10;;;;;;;0.90;0.90;;;;;;;11.30;100.00;99922.88;5030900;28;20100;-72
2022/10/01 04:49:35;;;;;;;1.65;0.88;;;;;;;11.29;100.00;99921.25;5032488;28;20017;-72
2022/10/01 04:52:01;;;;;;;1.20;0.80;;;;;;;11.31;100.00;99913.69;5032202;28;20107;-73
2022/10/01 04:54:26;;;;;;;1.42;0.80;;;;;;;11.31;100.00;99913.69;5030273;28;20025;-72
2022/10/01 04:56:52;;;;;;;2.55;1.25;;;;;;;11.34;100.00;99921.31;5031485;28;20087;-71
2022/10/01 04:59:18;;;;;;;3.67;1.20;;;;;;;11.35;100.00;99925.66;5032153;28;20029;-72
2022/10/01 05:01:44;;;;;;;1.48;1.23;;;;;;;11.37;100.00;99928.94;5030134;28;20334;-71
2022/10/01 05:04:09;;;;;;;1.73;1.40;;;;;;;11.40;100.00;99927.59;5031154;28;20056;-72
2022/10/01 05:06:34;;;;;;;1.98;1.13;;;;;;;11.41;100.00;99931.94;5032205;28;20057;-71
2022/10/01 05:09:00;;;;;;;2.55;1.40;;;;;;;11.41;100.00;99935.47;5017163;28;20372;-70
2022/10/01 05:11:25;;;;;;;1.83;1.30;;;;;;;11.38;100.00;99930.56;5012667;28;20080;-71
2022/10/01 05:13:51;;;;;;;1.73;1.50;;;;;;;11.43;100.00;99941.47;5018333;28;20034;-71
2022/10/01 05:16:16;;;;;;;2.78;1.60;;;;;;;11.42;100.00;99936.31;5030746;28;20026;-72
2022/10/01 05:18:42;;;;;;;4.50;2.00;;;;;;;11.46;100.00;99943.66;5031880;28;20104;-71
2022/10/01 05:21:10;;;;;;;3.22;1.70;;;;;;;11.46;100.00;99946.38;5031725;28;20214;-73
2022/10/01 05:23:35;;;;;;;2.20;1.77;;;;;;;11.49;100.00;99959.41;5026958;28;20076;-73
2022/10/01 05:26:04;;;;;;;2.05;1.65;;;;;;;11.54;100.00;99958.66;5012252;28;20014;-70
2022/10/01 05:28:33;;;;;;;2.08;1.73;;;;;;;11.50;100.00;99969.19;5014577;28;20032;-72
2022/10/01 05:30:59;;;;;;;2.30;1.88;;;;;;;11.51;100.00;99970.81;5015533;28;20028;-71
2022/10/01 05:33:25;;;;;;;2.30;2.10;;;;;;;11.53;100.00;99976.81;5016570;28;20017;-73
2022/10/01 05:35:51;;;;;;;3.53;2.13;;;;;;;11.55;100.00;99973.00;5034392;28;20030;-71
2022/10/01 05:38:17;;;;;;;5.47;3.17;;;;;;;11.52;100.00;99977.88;5015678;28;20425;-72
2022/10/01 05:40:45;;;;;;;2.72;2.40;;;;;;;11.60;100.00;99982.03;5016119;28;20113;-70
2022/10/01 05:43:10;;;;;;;4.38;2.28;;;;;;;11.57;100.00;99976.31;5015646;28;20100;-72
2022/10/01 05:45:36;;;;;;;5.43;2.72;;;;;;;11.59;100.00;99974.16;5020006;28;20105;-70
2022/10/01 05:48:05;;;;;;;5.07;2.55;;;;;;;11.60;100.00;99976.63;5035157;28;20342;-71
2022/10/01 05:50:32;;;;;;;3.50;2.65;;;;;;;11.63;100.00;99975.28;5034178;28;20033;-73
2022/10/01 05:52:59;;;;;;;3.42;2.80;;;;;;;11.64;100.00;99985.88;5035381;28;20083;-72
2022/10/01 05:55:24;;;;;;;3.05;2.72;;;;;;;11.65;100.00;99990.22;5033082;28;20024;-71
2022/10/01 05:57:57;;;;;;;3.90;2.70;;;;;;;11.68;100.00;99991.59;5014162;28;20029;-70
2022/10/01 06:00:23;;;;;;;4.63;2.83;;;;;;;11.68;100.00;99995.16;5014738;28;20103;-75
2022/10/01 06:02:50;;;;;;;3.05;2.85;;;;;;;11.70;100.00;100003.03;5013568;28;20527;-72
2022/10/01 06:05:16;;;;;;;4.95;3.25;;;;;;;11.67;100.00;99996.22;5016567;28;20029;-74
2022/10/01 06:07:41;;;;;;;3.75;3.35;;;;;;;11.68;100.00;99999.72;5030599;28;20026;-72
2022/10/01 06:10:08;;;;;;;4.50;3.80;;;;;;;11.70;100.00;99998.41;5032925;28;20092;-71
2022/10/01 06:12:33;;;;;;;5.38;3.40;;;;;;;11.66;100.00;99999.97;5035060;28;20413;-74
2022/10/01 06:14:58;;;;;;;4.47;3.65;;;;;;;11.68;100.00;99997.84;5034975;28;20037;-72
2022/10/01 06:17:24;;;;;;;8.15;4.00;;;;;;;11.68;100.00;99997.03;5032836;28;20044;-71
2022/10/01 06:19:50;;;;;;;4.28;3.88;;;;;;;11.70;100.00;100009.25;5024058;28;20041;-72
2022/10/01 06:22:16;;;;;;;4.85;4.35;;;;;;;11.70;100.00;100008.44;5034376;28;20088;-74
2022/10/01 06:24:41;;;;;;;4.95;4.28;;;;;;;11.69;100.00;100010.31;5035159;28;20033;-76
2022/10/01 06:27:06;;;;;;;6.75;4.45;;;;;;;11.73;100.00;100013.34;5034451;28;20453;-73
2022/10/01 06:29:32;;;;;;;5.97;4.72;;;;;;;11.74;100.00;100017.69;5021093;28;20064;-77
2022/10/01 06:31:57;;;;;;;4.47;4.07;;;;;;;11.75;100.00;100013.91;5014970;28;20026;-72
2022/10/01 06:34:22;;;;;;;5.25;4.72;;;;;;;11.78;100.00;100013.41;5021087;28;20522;-74
2022/10/01 06:36:48;;;;;;;8.98;4.60;;;;;;;11.79;100.00;100015.06;5034307;28;20029;-75
2022/10/01 06:39:13;;;;;;;6.10;4.82;;;;;;;11.82;100.00;100016.41;5035298;28;20404;-75
2022/10/01 06:41:46;;;;;;;4.93;4.38;;;;;;;11.85;100.00;100016.75;5016528;28;20109;-77
2022/10/01 06:44:11;;;;;;;7.65;5.43;;;;;;;11.86;100.00;100023.78;5013271;28;20388;-77
2022/10/01 06:46:36;;;;;;;6.70;5.18;;;;;;;11.89;100.00;100019.75;5014397;28;20030;-72
2022/10/01 06:49:02;;;;;;;9.05;5.22;;;;;;;11.93;100.00;100030.97;5014499;28;20026;-76
2022/10/01 06:54:11;;;;;;;7.97;5.70;;;;;;;12.02;100.00;100041.09;5014471;28;20533;-76
2022/10/01 06:56:36;;;;;;;8.20;5.32;;;;;;;12.08;100.00;100035.72;5014429;28;20120;-76
2022/10/01 06:59:03;;;;;;;6.75;5.22;;;;;;;12.11;100.00;100043.34;5023288;28;20112;-73
2022/10/01 07:01:28;;;;;;;9.05;5.82;;;;;;;12.13;100.00;100039.31;5031490;28;20025;-73
2022/10/01 07:03:53;;;;;;;7.38;5.70;;;;;;;12.18;100.00;100041.25;5032975;28;20034;-72
2022/10/01 07:06:19;;;;;;;8.98;5.88;;;;;;;12.22;100.00;100042.38;5030860;28;20060;-73
2022/10/01 07:08:48;;;;;;;9.82;5.47;;;;;;;12.23;100.00;100044.84;5049286;28;20519;-73
2022/10/01 07:11:13;;;;;;;10.63;6.05;;;;;;;12.28;100.00;100059.53;5033836;28;20060;-73
2022/10/01 07:13:38;;;;;;;6.88;5.60;;;;;;;12.32;100.00;100055.22;5035421;28;20057;-73
2022/10/01 07:16:04;;;;;;;8.05;5.65;;;;;;;12.35;100.00;100052.81;5030858;28;20033;-73
2022/10/01 07:18:30;;;;;;;10.88;6.53;;;;;;;12.41;100.00;100056.41;5028531;28;20087;-73
2022/10/01 07:20:56;;;;;;;8.27;5.90;;;;;;;12.44;100.00;100058.63;5033534;28;20041;-73
2022/10/01 07:23:23;;;;;;;9.27;6.38;;;;;;;12.46;100.00;100053.75;5033523;28;20067;-73
2022/10/01 07:25:48;;;;;;;10.68;6.20;;;;;;;12.55;100.00;100060.34;5034002;28;20059;-72
2022/10/01 07:28:17;;;;;;;14.02;7.22;;;;;;;12.58;100.00;100056.28;5013493;28;20038;-73
2022/10/01 07:30:58;;;;;;;11.15;6.35;;;;;;;12.63;100.00;100069.91;5013873;28;20033;-72
2022/10/01 07:33:24;;;;;;;14.05;6.40;;;;;;;12.68;100.00;100078.09;5025511;28;20030;-73
2022/10/01 07:35:49;;;;;;;10.65;5.82;;;;;;;12.70;100.00;100080.56;5015781;28;20032;-73
2022/10/01 07:38:15;;;;;;;12.88;6.80;;;;;;;12.68;100.00;100093.56;5025096;28;20029;-72
2022/10/01 07:40:40;;;;;;;9.65;6.65;;;;;;;12.66;100.00;100090.28;5013706;28;20025;-71
2022/10/01 07:43:07;;;;;;;11.68;6.55;;;;;;;12.67;100.00;100091.94;5013449;28;20125;-72
2022/10/01 07:45:32;;;;;;;9.82;6.70;;;;;;;12.65;100.00;100099.50;5014454;28;20053;-71
2022/10/01 07:47:59;;;;;;;11.55;6.82;;;;;;;12.64;100.00;100103.31;5033290;28;20022;-71
2022/10/01 07:50:29;;;;;;;14.15;7.22;;;;;;;12.65;100.00;100104.94;5027063;28;20347;-73
2022/10/01 07:52:56;;;;;;;12.10;7.78;;;;;;;12.66;100.00;100125.56;5029540;28;20029;-72
2022/10/01 07:55:22;;;;;;;9.23;7.57;;;;;;;12.64;100.00;100125.03;5032973;28;20064;-74
2022/10/01 07:57:52;;;;;;;17.10;7.95;;;;;;;12.63;100.00;100134.22;5013594;28;20037;-73
2022/10/01 08:00:18;;;;;;;10.93;7.97;;;;;;;12.62;100.00;100135.28;5028232;28;20413;-73
2022/10/01 08:02:48;;;;;;;13.73;8.13;;;;;;;12.63;100.00;100140.47;5010956;28;20496;-76
2022/10/01 08:05:17;;;;;;;9.65;7.97;;;;;;;12.65;100.00;100148.34;5011787;28;20025;-73
2022/10/01 08:07:43;;;;;;;14.07;8.13;;;;;;;12.67;100.00;100144.31;5042037;28;20080;-73
2022/10/01 08:10:09;;;;;;;12.38;7.88;;;;;;;12.69;100.00;100149.50;5012808;28;20057;-73
2022/10/01 08:12:34;;;;;;;13.82;7.93;;;;;;;12.73;100.00;100150.63;5012935;28;20459;-73
2022/10/01 08:15:02;;;;;;;11.07;8.88;;;;;;;12.76;100.00;100150.09;5012901;28;20033;-73
2022/10/01 08:17:28;;;;;;;11.63;8.38;;;;;;;12.78;100.00;100153.38;5027144;28;20032;-73
2022/10/01 08:19:53;;;;;;;10.45;7.53;;;;;;;12.81;100.00;100150.16;5027278;28;20022;-72
2022/10/01 08:22:19;;;;;;;10.55;7.18;;;;;;;12.83;100.00;100161.59;5032053;28;20041;-72
2022/10/01 08:24:45;;;;;;;12.30;7.80;;;;;;;12.87;100.00;100165.41;5032073;28;20445;-73
2022/10/01 08:27:10;;;;;;;13.00;6.93;;;;;;;12.91;100.00;100166.53;5032437;28;20018;-72
2022/10/01 08:29:35;;;;;;;9.57;6.70;;;;;;;12.91;100.00;100173.88;5031558;28;20071;-73
2022/10/01 08:32:00;;;;;;;9.20;6.25;;;;;;;12.93;100.00;100172.53;5031390;28;20130;-73
2022/10/01 08:34:26;;;;;;;12.20;6.53;;;;;;;12.98;100.00;100176.38;5028686;28;20445;-72
2022/10/01 08:36:51;;;;;;;9.40;4.95;;;;;;;12.95;100.00;100172.25;5012910;28;20022;-72
2022/10/01 08:39:17;;;;;;;7.25;4.43;;;;;;;12.95;100.00;100180.41;5013833;28;20117;-73
2022/10/01 08:41:57;;;;;;;7.93;4.60;;;;;;;12.96;100.00;100184.78;5024171;28;20029;-73
2022/10/01 08:44:29;;;;;;;8.02;4.05;;;;;;;12.96;100.00;100187.50;5032287;28;20029;-75
2022/10/01 08:46:59;;;;;;;;;;;;;;;13.01;100.00;100182.09;5032849;28;20032;-73
2022/10/01 08:49:41;;;;;;;6.45;3.88;;;;;;;13.05;100.00;100190.56;5027744;28;19994;-72
2022/10/01 08:52:28;;;;;;;7.28;4.72;;;;;;;13.15;100.00;100187.09;5021468;28;20025;-73
2022/10/01 08:55:23;;;;;;;6.32;3.67;;;;;;;13.17;100.00;100191.22;5031169;28;20021;-72
2022/10/01 08:57:55;;;;;;;6.50;3.35;;;;;;;13.13;100.00;100195.50;5010315;28;20146;-72
2022/10/01 09:00:20;;;;;;;;;;;;;;;13.16;100.00;100195.00;5012708;28;20037;-72
2022/10/01 09:02:46;;;;;;;6.93;3.67;;;;;;;13.14;100.00;100193.63;5013801;28;19909;-72
2022/10/01 09:05:51;;;;;;;8.45;4.10;;;;;;;13.17;100.00;100202.09;5016212;28;20296;-73
2022/10/01 09:08:22;;;;;;;14.05;4.13;;;;;;;13.26;100.00;100202.44;5030518;28;20033;-72
2022/10/01 09:11:03;;;;;;;9.18;4.05;;;;;;;13.29;100.00;100204.63;5036325;28;20108;-72
2022/10/01 09:13:32;;;;;;;14.27;4.85;;;;;;;13.37;100.00;100204.16;5035825;28;20018;-72
2022/10/01 09:16:07;;;;;;;14.10;4.82;;;;;;;13.42;100.00;100209.66;5018617;28;20029;-72
2022/10/01 09:18:48;;;;;;;11.98;4.65;;;;;;;13.54;100.00;100216.81;5015988;28;20369;-72
2022/10/01 09:21:21;;;;;;;13.88;4.90;;;;;;;13.59;100.00;100223.09;5015948;28;20046;-72
2022/10/01 09:24:02;;;;;;;15.57;4.25;;;;;;;13.72;100.00;100226.47;5031506;28;20022;-72
2022/10/01 09:26:27;;;;;;;16.88;4.32;;;;;;;13.84;100.00;100232.50;5017370;28;20103;-72
2022/10/01 09:28:54;;;;;;;18.27;4.45;;;;;;;13.92;100.00;100234.75;5025278;28;20461;-72
2022/10/01 09:31:28;;;;;;;16.13;5.13;;;;;;;14.05;100.00;100228.03;5014635;28;20033;-72
2022/10/01 09:34:02;;;;;;;17.25;4.38;;;;;;;14.11;100.00;100229.69;5015804;28;20032;-72
2022/10/01 09:37:04;;;;;;;15.55;3.72;;;;;;;14.23;100.00;100234.91;5034735;28;20112;-72
2022/10/01 09:39:40;;;;;;;15.70;3.70;;;;;;;14.20;100.00;100240.91;5021424;28;20370;-72
2022/10/01 09:42:06;;;;;;;15.27;3.35;;;;;;;14.29;100.00;100242.03;5014642;28;20374;-71
2022/10/01 09:44:32;;;;;;;17.60;3.30;;;;;;;14.36;100.00;100239.88;5015587;28;20026;-71
2022/10/01 09:46:58;;;;;;;16.40;3.45;;;;;;;14.41;100.00;100232.84;5015836;28;20026;-72
2022/10/01 09:49:32;;;;;;;20.25;3.38;;;;;;;14.42;100.00;100232.56;5023203;28;20080;-71
2022/10/01 09:52:02;;;;;;;15.07;2.72;;;;;;;14.47;100.00;100232.59;5015798;28;20030;-71
2022/10/01 09:54:38;;;;;;;15.20;2.80;;;;;;;14.47;100.00;100232.59;5015449;28;20026;-71
2022/10/01 09:57:21;;;;;;;14.88;3.10;;;;;;;14.60;100.00;100231.28;5015718;28;20034;-71
2022/10/01 10:00:03;;;;;;;15.88;3.17;;;;;;;14.62;100.00;100239.22;5018095;28;20444;-71
2022/10/01 10:02:37;;;;;;;18.20;2.75;;;;;;;14.75;100.00;100255.06;5012685;28;20048;-71
2022/10/01 10:05:07;;;;;;;11.68;2.80;;;;;;;14.80;100.00;100246.09;5015496;28;20038;-71
2022/10/01 10:07:33;;;;;;;17.20;3.65;;;;;;;14.81;100.00;100256.72;5015160;28;20088;-71
2022/10/01 10:10:21;;;;;;;13.48;3.13;;;;;;;14.87;100.00;100262.97;5030795;28;20025;-71
2022/10/01 10:12:52;;;;;;;16.27;3.17;;;;;;;14.78;100.00;100259.13;5034081;28;20025;-71
2022/10/01 10:15:21;;;;;;;15.05;3.50;;;;;;;14.72;100.00;100271.94;5033502;28;20040;-71
2022/10/01 10:17:50;;;;;;;14.77;3.80;;;;;;;14.65;100.00;100274.88;5033635;28;20022;-71
2022/10/01 10:20:36;;;;;;;18.88;3.28;;;;;;;14.58;100.00;100271.56;5015077;28;20460;-71
2022/10/01 10:23:28;;;;;;;19.85;3.67;;;;;;;14.60;100.00;100280.28;5013719;28;20034;-71
2022/10/01 10:26:02;;;;;;;15.02;2.72;;;;;;;14.64;100.00;100286.84;5015217;28;20081;-71
2022/10/01 10:28:40;;;;;;;14.35;2.97;;;;;;;14.77;100.00;100284.75;5018597;28;20029;-71
2022/10/01 10:31:21;;;;;;;19.60;4.32;;;;;;;14.84;100.00;100296.19;5033503;28;20033;-71
2022/10/01 10:34:03;;;;;;;16.80;2.92;;;;;;;14.94;100.00;100290.78;5032542;28;20025;-71
2022/10/01 10:36:32;;;;;;;15.25;2.70;;;;;;;14.98;100.00;100301.97;5034611;28;20024;-71
2022/10/01 10:38:58;;;;;;;17.35;3.22;;;;;;;15.04;100.00;100298.19;5027877;28;20104;-71
2022/10/01 10:41:26;;;;;;;12.48;2.53;;;;;;;15.15;100.00;100301.75;5014385;28;20028;-71
2022/10/01 10:43:59;;;;;;;14.25;2.70;;;;;;;15.22;100.00;100313.22;5014819;28;20022;-71
2022/10/01 10:46:37;;;;;;;15.02;3.13;;;;;;;15.30;100.00;100306.41;5014599;28;20026;-72
2022/10/01 10:49:07;;;;;;;11.48;2.55;;;;;;;15.45;100.00;100316.53;5023037;28;20021;-69
2022/10/01 10:51:52;;;;;;;17.43;3.30;;;;;;;15.56;100.00;100326.34;5034238;28;20029;-71
2022/10/01 10:54:31;;;;;;;13.63;2.67;;;;;;;15.73;100.00;100332.38;5033873;28;20268;-69
2022/10/01 10:57:03;;;;;;;11.98;2.33;;;;;;;15.76;100.00;100340.00;5049101;28;20017;-70
2022/10/01 10:59:30;;;;;;;;;;;;;;;15.71;100.00;100334.53;5028848;28;20120;-71
2022/10/01 11:01:55;;;;;;;18.42;2.95;;;;;;;15.37;100.00;100345.16;5011545;28;20060;-71
2022/10/01 11:04:27;;;;;;;14.05;2.47;;;;;;;15.25;100.00;100350.84;5014004;28;20084;-71
2022/10/01 11:06:55;;;;;;;16.38;3.20;;;;;;;15.19;100.00;100355.44;5014277;28;20449;-71
2022/10/01 11:09:23;;;;;;;11.68;2.70;;;;;;;15.25;100.00;100350.84;5024130;28;20022;-71
2022/10/01 11:11:57;;;;;;;14.18;2.72;;;;;;;15.35;100.00;100358.22;5023111;28;20032;-71
2022/10/01 11:14:45;;;;;;;13.27;2.47;;;;;;;15.44;100.00;100369.41;5012696;28;20377;-71
2022/10/01 11:17:29;;;;;;;13.80;2.88;;;;;;;15.55;100.00;100366.44;5032067;28;20033;-71
2022/10/01 11:20:24;;;;;;;17.13;3.13;;;;;;;15.55;100.00;100371.91;5019221;28;20026;-71
2022/10/01 11:23:04;;;;;;;15.95;2.83;;;;;;;15.58;100.00;100371.34;5014024;28;20045;-71
2022/10/01 11:25:40;;;;;;;13.98;3.08;;;;;;;15.72;100.00;100366.19;5012373;28;20357;-71
2022/10/01 11:28:28;;;;;;;16.20;2.78;;;;;;;15.87;100.00;100379.06;5013937;28;20088;-69
2022/10/01 11:31:02;;;;;;;14.18;3.10;;;;;;;15.94;100.00;100392.41;5014304;28;20053;-70
2022/10/01 11:34:00;;;;;;;17.77;3.30;;;;;;;16.04;100.00;100389.69;5013632;28;20096;-70